createdAt,value
2019-05-06T00:05:57.773Z,17.80
2019-05-06T00:11:04.874Z,17.33
2019-05-06T00:21:17.319Z,16.07
2019-05-06T00:26:37.321Z,16.17
2019-05-06T00:31:44.045Z,16.60
2019-05-06T00:42:06.818Z,15.78
2019-05-06T00:47:13.570Z,16.27
2019-05-06T00:52:19.666Z,14.83
2019-05-06T00:57:27.277Z,14.90
2019-05-06T01:07:40.276Z,14.23
2019-05-06T01:17:53.879Z,14.37
2019-05-06T01:28:05.661Z,13.77
2019-05-06T01:33:11.530Z,14.20
2019-05-06T01:43:34.711Z,13.37
2019-05-06T01:48:50.537Z,12.65
2019-05-06T01:53:56.709Z,12.00
2019-05-06T01:59:04.623Z,11.67
2019-05-06T02:04:10.495Z,12.80
2019-05-06T02:09:16.674Z,12.23
2019-05-06T02:14:24.471Z,11.93
2019-05-06T02:19:30.352Z,11.53
2019-05-06T02:24:44.014Z,11.60
2019-05-06T02:29:54.315Z,11.60
2019-05-06T02:35:08.002Z,11.05
2019-05-06T02:40:13.988Z,11.28
2019-05-06T02:45:19.916Z,11.17
2019-05-06T02:50:33.805Z,11.40
2019-05-06T02:55:38.019Z,11.78
2019-05-06T03:00:44.031Z,10.60
2019-05-06T03:05:52.938Z,10.55
2019-05-06T03:10:57.605Z,10.07
2019-05-06T03:16:05.921Z,10.53
2019-05-06T03:26:33.135Z,9.93
2019-05-06T03:31:38.387Z,10.13
2019-05-06T03:36:48.500Z,9.60
2019-05-06T03:47:10.339Z,9.43
2019-05-06T03:52:17.038Z,9.53
2019-05-06T03:57:23.399Z,9.48
2019-05-06T04:02:29.953Z,9.60
2019-05-06T04:07:35.845Z,9.00
2019-05-06T04:12:43.449Z,9.07
2019-05-06T04:17:53.939Z,9.30
2019-05-06T04:23:06.276Z,9.97
2019-05-06T04:28:15.705Z,9.67
2019-05-06T04:33:23.727Z,8.47
2019-05-06T04:48:43.355Z,8.00
2019-05-06T04:53:49.016Z,8.50
2019-05-06T04:58:54.993Z,8.50
2019-05-06T05:09:23.647Z,8.90
2019-05-06T05:14:29.284Z,9.27
2019-05-06T05:24:45.263Z,8.73
2019-05-06T05:29:52.217Z,8.73
2019-05-06T05:34:58.033Z,8.45
2019-05-06T05:40:04.013Z,10.87
2019-05-06T05:45:12.732Z,8.13
2019-05-06T05:50:26.470Z,8.90
2019-05-06T05:55:33.093Z,9.27
2019-05-06T06:05:44.955Z,10.60
2019-05-06T06:10:52.657Z,9.95
2019-05-06T06:21:24.903Z,10.55
2019-05-06T06:31:36.013Z,11.00
2019-05-06T06:36:49.789Z,10.70
2019-05-06T06:41:55.659Z,10.40
2019-05-06T06:47:02.077Z,10.43
2019-05-06T06:57:18.282Z,12.03
2019-05-06T07:02:24.021Z,12.65
2019-05-06T07:07:41.363Z,12.30
2019-05-06T07:12:39.388Z,12.23
2019-05-06T07:17:45.441Z,12.53
2019-05-06T07:22:52.996Z,11.83
2019-05-06T07:33:05.411Z,84.37
2019-05-06T07:38:12.022Z,255.07
2019-05-06T07:43:28.810Z,587.40
2019-05-06T07:53:42.714Z,544.23
2019-05-06T08:03:54.127Z,369.00
2019-05-06T08:09:00.137Z,295.95
2019-05-06T08:14:06.205Z,220.55
2019-05-06T08:19:12.374Z,122.03
2019-05-06T08:24:18.036Z,84.37
2019-05-06T08:29:24.028Z,54.13
2019-05-06T08:34:30.023Z,48.73
2019-05-06T08:39:36.000Z,29.50
2019-05-06T08:44:42.711Z,25.63
2019-05-06T08:50:02.199Z,20.23
2019-05-06T08:55:07.656Z,20.00
2019-05-06T09:00:13.627Z,18.40
2019-05-06T09:05:19.597Z,16.67
2019-05-06T09:10:25.578Z,16.80
2019-05-06T09:20:38.635Z,15.00
2019-05-06T09:25:44.614Z,15.90
2019-05-06T09:30:52.504Z,16.43
2019-05-06T09:35:58.699Z,14.83
2019-05-06T09:41:05.171Z,16.00
2019-05-06T09:51:18.646Z,15.13
2019-05-06T09:56:26.019Z,18.43
2019-05-06T10:01:33.128Z,16.07
2019-05-06T10:06:39.273Z,14.80
2019-05-06T10:16:52.423Z,14.93
2019-05-06T10:21:58.578Z,13.62
2019-05-06T10:27:04.548Z,12.90
2019-05-06T10:32:12.054Z,13.50
2019-05-06T10:42:25.637Z,13.83
2019-05-06T10:47:33.266Z,16.00
2019-05-06T10:52:57.705Z,14.90
2019-05-06T10:58:03.722Z,13.00
2019-05-06T11:03:15.368Z,12.43
2019-05-06T11:08:37.279Z,12.47
2019-05-06T11:13:43.285Z,13.40
2019-05-06T11:29:08.529Z,11.53
2019-05-06T11:34:19.420Z,10.97
2019-05-06T11:39:25.586Z,13.43
2019-05-06T11:44:32.322Z,11.10
2019-05-06T11:49:38.643Z,11.03
2019-05-06T11:54:44.439Z,10.43
2019-05-06T11:59:52.785Z,10.93
2019-05-06T12:04:58.415Z,10.77
2019-05-06T12:10:04.487Z,11.75
2019-05-06T12:15:12.582Z,11.12
2019-05-06T12:20:18.377Z,10.03
2019-05-06T12:25:24.361Z,9.70
2019-05-06T12:30:32.274Z,10.20
2019-05-06T12:35:39.569Z,10.20
2019-05-06T12:40:45.528Z,11.45
2019-05-06T12:45:55.702Z,10.67
2019-05-06T12:51:03.723Z,9.33
2019-05-06T12:56:09.583Z,10.23
2019-05-06T13:06:25.980Z,8.95
2019-05-06T13:11:29.270Z,9.20
2019-05-06T13:16:35.310Z,9.17
2019-05-06T13:21:42.301Z,8.27
2019-05-06T13:26:48.479Z,8.27
2019-05-06T13:31:54.760Z,8.87
2019-05-06T13:37:00.752Z,14.73
2019-05-06T13:42:06.602Z,23.70
2019-05-06T13:47:14.089Z,24.20
2019-05-06T13:57:29.159Z,126.80
2019-05-06T14:02:43.689Z,55.63
2019-05-06T14:07:52.533Z,50.23
2019-05-06T14:13:12.888Z,22.43
2019-05-06T14:18:22.595Z,147.32
2019-05-06T14:23:28.657Z,100.53
2019-05-06T14:28:36.273Z,56.57
2019-05-06T14:33:43.276Z,38.00
2019-05-06T14:38:49.273Z,70.87
2019-05-06T14:43:55.362Z,65.50
2019-05-06T14:49:04.223Z,44.87
2019-05-06T14:54:08.978Z,26.57
2019-05-06T14:59:14.875Z,16.07
2019-05-06T15:04:23.025Z,62.80
2019-05-06T15:09:28.649Z,60.13
2019-05-06T15:14:34.533Z,69.47
2019-05-06T15:19:42.680Z,33.17
2019-05-06T15:24:47.994Z,49.63
2019-05-06T15:30:03.579Z,80.33
2019-05-06T15:35:15.710Z,232.60
2019-05-06T15:40:32.176Z,211.87
2019-05-06T15:45:32.378Z,171.00
2019-05-06T15:50:38.421Z,189.70
2019-05-06T15:55:44.602Z,169.20
2019-05-06T16:00:52.939Z,141.03
2019-05-06T16:05:58.388Z,105.87
2019-05-06T16:11:04.359Z,37.77
2019-05-06T16:16:10.332Z,46.60
2019-05-06T16:21:16.407Z,36.25
2019-05-06T16:26:22.991Z,48.90
2019-05-06T16:31:29.380Z,50.95
2019-05-06T16:36:35.757Z,305.90
2019-05-06T16:41:42.298Z,269.17
2019-05-06T16:46:49.511Z,147.77
2019-05-06T16:51:56.213Z,415.73
2019-05-06T16:57:03.807Z,364.73
2019-05-06T17:02:13.921Z,764.10
2019-05-06T17:07:19.746Z,848.63
2019-05-06T17:12:45.952Z,572.75
2019-05-06T17:17:53.118Z,392.43
2019-05-06T17:23:02.671Z,278.00
2019-05-06T17:28:26.126Z,185.70
2019-05-06T17:38:44.071Z,362.10
2019-05-06T17:49:08.162Z,671.73
2019-05-06T17:54:14.210Z,510.27
2019-05-06T17:59:20.397Z,592.13
2019-05-06T18:04:27.121Z,567.40
2019-05-06T18:09:33.576Z,400.03
2019-05-06T18:14:39.746Z,615.23
2019-05-06T18:19:45.815Z,544.50
2019-05-06T18:24:52.568Z,589.87
2019-05-06T18:30:11.437Z,309.75
2019-05-06T18:35:06.371Z,138.07
2019-05-06T18:40:12.340Z,57.23
2019-05-06T18:45:18.817Z,29.53
2019-05-06T18:55:33.086Z,11.03
2019-05-06T19:00:38.378Z,10.03
2019-05-06T19:10:53.170Z,531.97
2019-05-06T19:15:59.562Z,437.80
2019-05-06T19:21:06.563Z,196.37
2019-05-06T19:26:12.798Z,434.25
2019-05-06T19:31:18.804Z,246.80
2019-05-06T19:36:24.745Z,427.90
2019-05-06T19:41:33.159Z,466.27
2019-05-06T19:46:39.386Z,453.70
2019-05-06T19:51:45.450Z,315.83
2019-05-06T19:56:52.718Z,601.37
2019-05-06T20:01:58.821Z,205.13
2019-05-06T20:07:15.611Z,382.27
2019-05-06T20:12:32.817Z,397.50
2019-05-06T20:22:45.944Z,294.27
2019-05-06T20:27:52.680Z,126.63
2019-05-06T20:32:58.818Z,172.53
2019-05-06T20:38:04.904Z,451.80
2019-05-06T20:43:17.433Z,619.77
2019-05-06T20:48:18.690Z,299.30
2019-05-06T20:53:24.693Z,300.93
2019-05-06T21:03:36.560Z,51.40
2019-05-06T21:08:42.784Z,28.53
2019-05-06T21:13:50.514Z,18.50
2019-05-06T21:24:04.363Z,12.03
2019-05-06T21:29:12.732Z,9.30
2019-05-06T21:39:25.023Z,11.22
2019-05-06T21:44:32.408Z,9.40
2019-05-06T21:49:38.735Z,10.00
2019-05-06T21:54:44.699Z,10.23
2019-05-06T21:59:52.559Z,10.47
2019-05-06T22:04:58.379Z,8.97
2019-05-06T22:10:04.356Z,9.83
2019-05-06T22:15:11.870Z,9.00
2019-05-06T22:25:23.704Z,9.30
2019-05-06T22:30:29.673Z,9.57
2019-05-06T22:35:35.631Z,9.27
2019-05-06T22:45:48.597Z,10.20
2019-05-06T22:50:54.508Z,9.83
2019-05-06T22:56:02.682Z,8.37
2019-05-06T23:01:12.103Z,8.97
2019-05-06T23:06:17.990Z,8.93
2019-05-06T23:11:23.874Z,8.70
2019-05-06T23:16:44.306Z,9.70
2019-05-06T23:21:50.369Z,8.10
2019-05-06T23:26:57.289Z,8.97
2019-05-06T23:32:03.325Z,9.97
2019-05-06T23:37:09.295Z,10.30
2019-05-06T23:42:15.286Z,11.30
2019-05-06T23:47:22.050Z,11.50
2019-05-06T23:52:28.437Z,8.90
2019-05-06T23:57:34.509Z,10.00
